Elizabethville, Pennsylvania
Current Conditions -  °F | °C
As of 1:58 PM on Saturday 20 Dec 2014 (Local Time) from KMUI Reporting Station
Overcast Overcast  
Wind Chill: 33°   Ceiling: 3100
Heat Index: 33°   Visibility: 10mi
Dew Point: 20°   Wind: 0mph
Humidity: 60%   Direction: NA
Pressure: 30.24"   Gusts: NA
Location:  40.55°N, 76.81°W
Report Text: KMUI 201858Z AUTO 00000KT 10SM OVC031 00/M07 A3024 RMK AO2 SLP249 T00031067
Loading
Personal Weather Stations






























Interactive Weather Map New forecast layout! Learn more

10-Day Weather Forecast

Advertisements
Track Severe Weather on mobile